createdAt,value
2022-10-13T00:01:04.298Z,9.3
2022-10-13T00:03:08.273Z,8.2
2022-10-13T00:05:12.419Z,8.8
2022-10-13T00:07:16.302Z,9.4
2022-10-13T00:09:23.336Z,9.8
2022-10-13T00:11:27.364Z,8.9
2022-10-13T00:19:43.438Z,8
2022-10-13T00:23:54.601Z,9.9
2022-10-13T00:25:58.520Z,9
2022-10-13T00:28:02.557Z,9.4
2022-10-13T00:29:06.056Z,8.4
2022-10-13T00:31:10.098Z,9.1
2022-10-13T00:33:14.115Z,9.5
2022-10-13T00:35:18.261Z,7.7
2022-10-13T00:37:25.192Z,8.2
2022-10-13T00:39:29.202Z,9
2022-10-13T00:41:33.230Z,8.6
2022-10-13T00:43:37.269Z,8.9
2022-10-13T00:45:41.288Z,8.2
2022-10-13T00:47:45.319Z,10.1
2022-10-13T00:49:49.334Z,7.2
2022-10-13T00:51:56.395Z,9.4
2022-10-13T00:54:00.403Z,8.4
2022-10-13T00:56:04.433Z,9.9
2022-10-13T00:58:08.461Z,7.3
2022-10-13T01:00:12.473Z,10.2
2022-10-13T01:02:16.832Z,8.7
2022-10-13T01:04:20.545Z,8.3
2022-10-13T01:06:27.576Z,10.6
2022-10-13T01:08:31.602Z,8.1
2022-10-13T01:10:35.636Z,8.2
2022-10-13T01:12:39.664Z,9.3
2022-10-13T01:14:43.698Z,8.8
2022-10-13T01:16:47.735Z,9.6
2022-10-13T01:18:51.762Z,8.3
2022-10-13T01:20:58.796Z,8.9
2022-10-13T01:23:02.842Z,10.4
2022-10-13T01:25:06.861Z,8.5
2022-10-13T01:26:10.380Z,8.3
2022-10-13T01:28:14.482Z,7.9
2022-10-13T01:30:18.431Z,9.6
2022-10-13T01:32:22.479Z,7.6
2022-10-13T01:34:29.638Z,8.4
2022-10-13T01:38:37.575Z,9.5
2022-10-13T01:40:41.627Z,7.9
2022-10-13T01:44:49.700Z,9.4
2022-10-13T01:46:53.736Z,9.3
2022-10-13T01:49:00.775Z,8.6
2022-10-13T01:51:04.821Z,8.4
2022-10-13T01:55:12.884Z,9.1
2022-10-13T01:57:16.916Z,9.2
2022-10-13T01:59:20.959Z,7.3
2022-10-13T02:01:24.994Z,9.1
2022-10-13T02:03:32.056Z,9.5
2022-10-13T02:05:36.091Z,9.6
2022-10-13T02:07:40.149Z,7
2022-10-13T02:11:49.784Z,8.7
2022-10-13T02:13:53.782Z,9.6
2022-10-13T02:15:57.814Z,9.2
2022-10-13T02:20:08.902Z,7.8
2022-10-13T02:22:12.949Z,7.2
2022-10-13T02:24:35.404Z,8.9
2022-10-13T02:26:39.430Z,9.1
2022-10-13T02:28:43.519Z,8.5
2022-10-13T02:30:50.530Z,9.9
2022-10-13T02:32:54.574Z,8
2022-10-13T02:34:58.619Z,8.7
2022-10-13T02:37:02.674Z,10.5
2022-10-13T02:41:10.737Z,9.7
2022-10-13T02:47:25.909Z,9.3
2022-10-13T02:49:29.929Z,9.3
2022-10-13T02:53:38.020Z,8.6
2022-10-13T02:55:42.060Z,10
2022-10-13T02:57:46.094Z,8.4
2022-10-13T03:01:57.621Z,11.2
2022-10-13T03:12:18.145Z,9.9
2022-10-13T03:16:28.992Z,8.5
2022-10-13T03:18:33.076Z,8.7
2022-10-13T03:19:36.580Z,9.2
2022-10-13T03:21:40.649Z,8
2022-10-13T03:25:48.769Z,8
2022-10-13T03:29:59.928Z,8.6
2022-10-13T03:32:03.950Z,8.7
2022-10-13T03:34:08.021Z,8.1
2022-10-13T03:36:12.080Z,7.7
2022-10-13T03:38:16.141Z,8
2022-10-13T03:40:20.195Z,7.9
2022-10-13T03:42:27.268Z,9.1
2022-10-13T03:44:31.306Z,9.1
2022-10-13T03:46:35.378Z,7.7
2022-10-13T03:48:39.442Z,7.5
2022-10-13T03:50:43.526Z,8.2
2022-10-13T03:52:47.583Z,8.3
2022-10-13T03:54:51.621Z,7.5
2022-10-13T03:56:58.719Z,9.8
2022-10-13T03:59:02.762Z,9.1
2022-10-13T04:01:06.817Z,6.9
2022-10-13T04:03:10.898Z,9.2
2022-10-13T04:05:14.980Z,10.1
2022-10-13T04:07:19.005Z,8.8
2022-10-13T04:11:30.145Z,9.5
2022-10-13T04:15:38.283Z,7.2
2022-10-13T04:16:41.800Z,10.5
2022-10-13T04:18:45.865Z,8.2
2022-10-13T04:20:49.934Z,9.2
2022-10-13T04:22:54.006Z,10.2
2022-10-13T04:25:01.115Z,9.7
2022-10-13T04:33:17.387Z,8.3
2022-10-13T04:35:21.467Z,8.4
2022-10-13T04:37:25.550Z,7.2
2022-10-13T04:39:32.621Z,10
2022-10-13T04:41:36.689Z,8.5
2022-10-13T04:43:40.765Z,6.7
2022-10-13T04:45:44.836Z,7.6
2022-10-13T04:47:48.924Z,8.7
2022-10-13T04:49:52.991Z,8.9
2022-10-13T04:51:57.068Z,8.8
2022-10-13T04:54:04.142Z,6.8
2022-10-13T05:00:16.361Z,8.1
2022-10-13T05:02:20.738Z,8.3
2022-10-13T05:06:28.579Z,7.5
2022-10-13T05:10:39.744Z,9.4
2022-10-13T05:12:43.823Z,8.3
2022-10-13T05:13:47.363Z,7.9
2022-10-13T05:15:51.465Z,8.6
2022-10-13T05:17:55.519Z,9.2
2022-10-13T05:19:59.592Z,8.3
2022-10-13T05:22:06.664Z,9.6
2022-10-13T05:24:10.791Z,9.6
2022-10-13T05:28:18.958Z,10
2022-10-13T05:30:22.993Z,8.4
2022-10-13T05:32:27.064Z,8.1
2022-10-13T05:34:31.132Z,9.7
2022-10-13T05:36:38.215Z,9.3
2022-10-13T05:40:46.340Z,8.7
2022-10-13T05:42:50.401Z,9.9
2022-10-13T05:55:17.815Z,8.8
2022-10-13T05:57:21.892Z,10.6
2022-10-13T05:59:27.320Z,9.5
2022-10-13T06:01:30.154Z,10.3
2022-10-13T06:03:34.119Z,9.4
2022-10-13T06:05:41.173Z,9.5
2022-10-13T06:07:45.244Z,9.9
2022-10-13T06:09:49.303Z,11
2022-10-13T06:12:13.547Z,9
2022-10-13T06:14:17.626Z,9
2022-10-13T06:16:21.701Z,9.3
2022-10-13T06:18:28.773Z,11.7
2022-10-13T06:20:32.833Z,9
2022-10-13T06:22:36.908Z,11
2022-10-13T06:24:40.976Z,11.6
2022-10-13T06:26:45.089Z,10.5
2022-10-13T06:28:50.598Z,9.7
2022-10-13T06:30:53.219Z,7.4
2022-10-13T06:33:00.307Z,10.2
2022-10-13T06:35:04.371Z,10.2
2022-10-13T06:37:08.444Z,8.2
2022-10-13T06:39:12.532Z,8.9
2022-10-13T06:41:16.596Z,9.1
2022-10-13T06:43:20.674Z,9.8
2022-10-13T06:45:24.732Z,8.4
2022-10-13T06:47:31.838Z,9.5
2022-10-13T06:49:35.918Z,8.5
2022-10-13T06:51:39.980Z,9.2
2022-10-13T06:53:44.046Z,8.5
2022-10-13T06:55:51.623Z,9
2022-10-13T06:57:52.191Z,10
2022-10-13T06:59:56.280Z,8.7
2022-10-13T07:02:03.362Z,10.9
2022-10-13T07:04:07.424Z,9.7
2022-10-13T07:06:11.533Z,9.7
2022-10-13T07:07:15.058Z,8.6
2022-10-13T07:09:19.357Z,10.8
2022-10-13T07:11:23.211Z,8.8
2022-10-13T07:13:27.629Z,11.2
2022-10-13T07:15:34.288Z,10.7
2022-10-13T07:17:38.381Z,8
2022-10-13T07:19:42.453Z,10.6
2022-10-13T07:21:46.541Z,9.1
2022-10-13T07:23:50.653Z,7.9
2022-10-13T07:25:54.709Z,9.7
2022-10-13T07:27:58.779Z,11.2
2022-10-13T07:30:05.908Z,10.2
2022-10-13T07:32:09.954Z,9.8
2022-10-13T07:34:14.038Z,10.8
2022-10-13T07:36:18.130Z,10.1
2022-10-13T07:38:22.222Z,9.8
2022-10-13T07:40:26.306Z,9
2022-10-13T07:42:30.388Z,8.8
2022-10-13T07:44:37.469Z,10.4
2022-10-13T07:46:41.587Z,10.7
2022-10-13T07:48:45.654Z,10.6
2022-10-13T07:50:49.737Z,8.8
2022-10-13T07:52:53.840Z,10.2
2022-10-13T07:54:57.906Z,9.4
2022-10-13T07:57:01.997Z,9.4
2022-10-13T07:59:09.123Z,9.6
2022-10-13T08:01:13.241Z,9.2
2022-10-13T08:03:17.290Z,10.5
2022-10-13T08:04:20.823Z,10.1
2022-10-13T08:06:24.917Z,8.6
2022-10-13T08:08:30.592Z,8.5
2022-10-13T08:16:52.922Z,8.3
2022-10-13T08:21:23.912Z,10
2022-10-13T08:23:02.210Z,9
2022-10-13T08:25:06.317Z,9.2
2022-10-13T08:27:13.538Z,11.2
2022-10-13T08:29:21.786Z,11.4
2022-10-13T08:31:21.716Z,8.5
2022-10-13T08:33:25.696Z,12
2022-10-13T08:35:34.105Z,10.8
2022-10-13T08:39:38.799Z,10.4
2022-10-13T08:44:33.084Z,10
2022-10-13T08:45:54.086Z,9.5
2022-10-13T08:47:58.202Z,9.1
2022-10-13T08:50:02.299Z,11.5
2022-10-13T08:52:06.365Z,9.3
2022-10-13T08:54:10.458Z,10
2022-10-13T08:56:17.590Z,10.3
2022-10-13T09:01:29.388Z,10.1
2022-10-13T09:03:33.429Z,11
2022-10-13T09:05:37.507Z,10.5
2022-10-13T09:07:41.638Z,10.7
2022-10-13T09:09:48.692Z,11.8
2022-10-13T09:11:52.863Z,11.6
2022-10-13T09:13:56.885Z,11.2
2022-10-13T09:16:00.976Z,13.4
2022-10-13T09:18:05.076Z,12.5
2022-10-13T09:20:09.182Z,11.3
2022-10-13T09:22:13.276Z,11.9
2022-10-13T09:24:20.436Z,12.5
2022-10-13T09:26:24.513Z,12.5
2022-10-13T09:28:28.641Z,13.6
2022-10-13T09:30:32.704Z,14.7
2022-10-13T09:32:36.808Z,13.2
2022-10-13T09:34:40.900Z,13.3
2022-10-13T09:36:44.998Z,14.6
2022-10-13T09:38:52.112Z,12.3
2022-10-13T09:40:56.181Z,13.6
2022-10-13T09:43:00.297Z,12.2
2022-10-13T09:45:04.406Z,13
2022-10-13T09:47:08.486Z,11.5
2022-10-13T09:49:12.584Z,11.8
2022-10-13T09:51:16.708Z,11.7
2022-10-13T09:53:23.797Z,11.2
2022-10-13T09:55:32.031Z,10.9
2022-10-13T09:57:32.016Z,10.5
2022-10-13T10:06:11.672Z,11
2022-10-13T10:12:27.661Z,9.2
2022-10-13T10:14:28.138Z,11.1
2022-10-13T10:16:32.231Z,10.6
2022-10-13T10:18:36.352Z,12.3
2022-10-13T10:20:43.466Z,10.3
2022-10-13T10:22:47.595Z,11.4
2022-10-13T10:24:51.708Z,10.2
2022-10-13T10:26:55.847Z,11.3
2022-10-13T10:28:59.979Z,12.6
2022-10-13T10:31:04.060Z,11
2022-10-13T10:33:08.198Z,10.3
2022-10-13T10:35:15.307Z,10.4
2022-10-13T10:37:21.427Z,8.9
2022-10-13T10:39:23.572Z,9.6
2022-10-13T10:41:27.678Z,9.2
2022-10-13T10:43:31.805Z,8.9
2022-10-13T10:47:40.035Z,8.7
2022-10-13T10:49:47.154Z,8.4
2022-10-13T10:51:51.311Z,8.5
2022-10-13T10:53:55.396Z,9.4
2022-10-13T10:54:58.975Z,8.8
2022-10-13T10:57:03.072Z,7.8
2022-10-13T10:59:07.226Z,7.9
2022-10-13T11:01:11.405Z,8.4
2022-10-13T11:03:18.460Z,8.5
2022-10-13T11:05:22.580Z,8.8
2022-10-13T11:07:26.690Z,6.4
2022-10-13T11:09:30.815Z,9.1
2022-10-13T11:11:37.795Z,7.6
2022-10-13T11:13:39.288Z,7.1
2022-10-13T11:15:43.224Z,7.5
2022-10-13T11:17:50.338Z,8.7
2022-10-13T11:19:54.433Z,7.2
2022-10-13T11:21:58.582Z,7
2022-10-13T11:24:02.700Z,6.4
2022-10-13T11:26:06.828Z,7
2022-10-13T11:28:10.945Z,7.9
2022-10-13T11:30:15.082Z,7.8
2022-10-13T11:32:22.514Z,6.6
2022-10-13T11:38:34.573Z,7.3
2022-10-13T11:40:38.706Z,6
2022-10-13T11:44:46.963Z,6.2
2022-10-13T11:46:54.105Z,4.9
2022-10-13T11:48:58.230Z,6.8
2022-10-13T11:51:02.345Z,7.2
2022-10-13T11:52:05.918Z,5.4
2022-10-13T11:54:10.039Z,6
2022-10-13T11:58:18.307Z,5.5
2022-10-13T12:02:29.596Z,6.7
2022-10-13T12:08:41.937Z,8.6
2022-10-13T12:10:46.076Z,8.3
2022-10-13T12:12:50.328Z,8.7
2022-10-13T12:14:59.872Z,9.1
2022-10-13T12:17:01.456Z,9.1
2022-10-13T12:19:05.563Z,8.3
2022-10-13T12:21:09.678Z,9.4
2022-10-13T12:23:13.806Z,10.1
2022-10-13T12:25:17.932Z,8.4
2022-10-13T12:27:22.360Z,8.4
2022-10-13T12:29:33.392Z,8.8
2022-10-13T12:35:41.549Z,7.5
2022-10-13T12:39:49.768Z,8.2
2022-10-13T12:41:53.895Z,8.8
2022-10-13T12:44:03.961Z,7.9
2022-10-13T12:46:05.150Z,6.2
2022-10-13T12:48:09.263Z,10
2022-10-13T12:49:12.857Z,6.7
2022-10-13T12:51:16.953Z,8.2
2022-10-13T12:53:21.068Z,7.7
2022-10-13T12:55:25.189Z,8.7
2022-10-13T12:57:32.311Z,8.3
2022-10-13T12:59:36.470Z,7.9
2022-10-13T13:01:40.587Z,9.3
2022-10-13T13:03:44.707Z,8.6
2022-10-13T13:05:52.332Z,7.9
2022-10-13T13:07:52.964Z,9.3
2022-10-13T13:09:57.047Z,9.1
2022-10-13T13:12:04.180Z,8.6
2022-10-13T13:14:08.273Z,7.3
2022-10-13T13:16:12.391Z,9.4
2022-10-13T13:18:16.508Z,8.7
2022-10-13T13:20:20.611Z,9.5
2022-10-13T13:22:24.766Z,9.7
2022-10-13T13:24:39.472Z,9.4
2022-10-13T13:26:35.962Z,10.7
2022-10-13T13:28:40.200Z,9.8
2022-10-13T13:30:44.150Z,10.5
2022-10-13T13:32:48.280Z,9.6
2022-10-13T13:34:52.385Z,11.3
2022-10-13T13:36:56.511Z,11.3
2022-10-13T13:39:00.601Z,10.7
2022-10-13T13:41:07.717Z,11.1
2022-10-13T13:43:11.827Z,10.8
2022-10-13T13:45:15.933Z,9.8
2022-10-13T13:47:34.329Z,9.9
2022-10-13T13:49:38.444Z,9.5
2022-10-13T13:51:42.527Z,11.5
2022-10-13T13:53:49.637Z,10.9
2022-10-13T13:55:53.735Z,10.9
2022-10-13T13:57:57.847Z,11.3
2022-10-13T14:00:02.092Z,11.2
2022-10-13T14:02:06.158Z,11.1
2022-10-13T14:04:10.180Z,12.2
2022-10-13T14:06:15.822Z,11.4
2022-10-13T14:12:31.066Z,12.2
2022-10-13T14:14:35.169Z,12.9
2022-10-13T14:16:39.253Z,11.7
2022-10-13T14:18:43.347Z,11.7
2022-10-13T14:20:47.454Z,10.8
2022-10-13T14:22:54.556Z,12.9
2022-10-13T14:24:58.636Z,12.4
2022-10-13T14:27:02.731Z,12.2
2022-10-13T14:29:06.822Z,14.6
2022-10-13T14:31:10.910Z,11.5
2022-10-13T14:33:15.014Z,12.6
2022-10-13T14:35:19.093Z,13
2022-10-13T14:37:31.891Z,13.3
2022-10-13T14:39:30.299Z,14.3
2022-10-13T14:44:42.030Z,13.6
2022-10-13T14:46:46.116Z,14.1
2022-10-13T14:48:50.209Z,14.2
2022-10-13T14:50:57.303Z,16.6
2022-10-13T14:53:01.424Z,13.2
2022-10-13T14:55:05.501Z,13.1
2022-10-13T14:57:09.610Z,13
2022-10-13T14:59:13.698Z,13.8
2022-10-13T15:01:17.802Z,15.3
2022-10-13T15:03:21.975Z,14
2022-10-13T15:05:28.979Z,15.5
2022-10-13T15:07:33.093Z,15.4
2022-10-13T15:09:53.190Z,14.7
2022-10-13T15:11:41.276Z,13.8
2022-10-13T15:20:00.671Z,14.7
2022-10-13T15:22:04.756Z,16.3
2022-10-13T15:24:08.854Z,15.1
2022-10-13T15:26:13.108Z,15.4
2022-10-13T15:28:17.249Z,16.4
2022-10-13T15:30:21.290Z,16.5
2022-10-13T15:34:32.505Z,15.7
2022-10-13T15:38:40.686Z,12.4
2022-10-13T15:41:48.340Z,14
2022-10-13T15:43:52.436Z,14.1
2022-10-13T15:45:56.545Z,13.6
2022-10-13T15:48:03.665Z,14.6
2022-10-13T15:50:07.749Z,13.9
2022-10-13T15:52:12.012Z,15.2
2022-10-13T15:54:15.952Z,14.6
2022-10-13T15:56:20.059Z,13.9
2022-10-13T15:58:24.143Z,14.7
2022-10-13T16:00:28.301Z,13.9
2022-10-13T16:02:35.341Z,14.6
2022-10-13T16:04:39.437Z,15.9
2022-10-13T16:06:43.560Z,15.4
2022-10-13T16:08:47.661Z,15.2
2022-10-13T16:10:51.741Z,15.1
2022-10-13T16:12:55.861Z,14
2022-10-13T16:14:59.931Z,16.3
2022-10-13T16:17:07.042Z,17
2022-10-13T16:19:11.173Z,17.7
2022-10-13T16:21:18.632Z,14
2022-10-13T16:23:19.358Z,16.1
2022-10-13T16:25:23.434Z,15.7
2022-10-13T16:27:27.523Z,15.5
2022-10-13T16:29:31.621Z,14.4
2022-10-13T16:31:38.729Z,13.5
2022-10-13T16:33:42.840Z,15.1
2022-10-13T16:35:46.924Z,16.3
2022-10-13T16:36:50.495Z,17.4
2022-10-13T16:38:54.561Z,15
2022-10-13T16:40:58.660Z,16
2022-10-13T16:43:02.773Z,14.2
2022-10-13T16:45:09.873Z,15.1
2022-10-13T16:47:18.039Z,17.8
2022-10-13T16:51:22.173Z,20.6
2022-10-13T16:53:26.256Z,16.3
2022-10-13T16:55:30.356Z,16.7
2022-10-13T16:57:34.438Z,16.7
2022-10-13T16:59:41.555Z,18.3
2022-10-13T17:01:45.650Z,17.5
2022-10-13T17:03:49.753Z,21.2
2022-10-13T17:05:53.843Z,21.5
2022-10-13T17:07:57.932Z,21.8
2022-10-13T17:10:02.062Z,21.4
2022-10-13T17:12:06.128Z,20.2
2022-10-13T17:14:13.225Z,23.8
2022-10-13T17:16:17.312Z,22
2022-10-13T17:18:21.397Z,19
2022-10-13T17:20:25.629Z,19.8
2022-10-13T17:22:29.586Z,20.8
2022-10-13T17:24:33.679Z,18.8
2022-10-13T17:26:37.780Z,19.8
2022-10-13T17:28:44.976Z,19.9
2022-10-13T17:30:49.152Z,17.8
2022-10-13T17:32:53.087Z,19.8
2022-10-13T17:35:17.090Z,19.7
2022-10-13T17:37:21.604Z,19.1
2022-10-13T17:39:25.287Z,18.3
2022-10-13T17:47:44.704Z,17.2
2022-10-13T17:49:48.802Z,17.2
2022-10-13T17:56:04.107Z,16.2
2022-10-13T17:58:08.211Z,17.3
2022-10-13T18:00:12.318Z,18.7
2022-10-13T18:02:16.499Z,18.4
2022-10-13T18:04:20.507Z,19
2022-10-13T18:08:28.667Z,19.2
2022-10-13T18:12:39.888Z,19.8
2022-10-13T18:14:43.984Z,20
2022-10-13T18:16:48.082Z,20.4
2022-10-13T18:18:52.173Z,19
2022-10-13T18:20:56.231Z,21
2022-10-13T18:23:00.316Z,20.7
2022-10-13T18:27:11.518Z,23.4
2022-10-13T18:30:22.402Z,24.6
2022-10-13T18:32:23.258Z,24.8
2022-10-13T18:34:27.327Z,26.4
2022-10-13T18:36:31.423Z,24
2022-10-13T18:38:38.530Z,29.4
2022-10-13T18:40:42.600Z,28.7
2022-10-13T18:44:50.792Z,28.2
2022-10-13T18:46:54.889Z,31.7
2022-10-13T18:48:58.968Z,32.1
2022-10-13T18:53:10.174Z,37
2022-10-13T18:57:18.654Z,36.4
2022-10-13T18:59:22.434Z,37.3
2022-10-13T19:03:30.608Z,39.2
2022-10-13T19:07:42.393Z,43.9
2022-10-13T19:09:46.477Z,42
2022-10-13T19:11:50.550Z,46.8
2022-10-13T19:13:54.866Z,44.9
2022-10-13T19:15:58.712Z,51.5
2022-10-13T19:18:02.813Z,54.3
2022-10-13T19:20:06.902Z,54
2022-10-13T19:22:14.001Z,56.5
2022-10-13T19:26:22.175Z,54.8
2022-10-13T19:27:25.706Z,53.8
2022-10-13T19:29:29.802Z,55.3
2022-10-13T19:31:33.906Z,54.2
2022-10-13T19:33:43.463Z,53.7
2022-10-13T19:35:45.075Z,61.5
2022-10-13T19:37:49.227Z,59.4
2022-10-13T19:39:53.240Z,58.3
2022-10-13T19:41:57.351Z,59.8
2022-10-13T19:44:01.425Z,56.9
2022-10-13T19:46:05.521Z,53
2022-10-13T19:48:09.620Z,55.5
2022-10-13T19:50:16.709Z,61.4
2022-10-13T19:52:20.809Z,57.1
2022-10-13T19:54:26.318Z,57.1
2022-10-13T19:56:28.961Z,56.3
2022-10-13T19:58:33.073Z,53.2
2022-10-13T20:00:37.356Z,51.1
2022-10-13T20:02:41.248Z,46.6
2022-10-13T20:04:49.886Z,48.4
2022-10-13T20:06:54.004Z,49.1
2022-10-13T20:08:58.072Z,48.8
2022-10-13T20:11:02.184Z,47.5
2022-10-13T20:13:06.255Z,47.5
2022-10-13T20:15:10.336Z,43.2
2022-10-13T20:17:14.437Z,44.7
2022-10-13T20:19:21.535Z,40.8
2022-10-13T20:21:25.617Z,39.1
2022-10-13T20:23:29.726Z,35.4
2022-10-13T20:24:33.286Z,38.8
2022-10-13T20:26:37.368Z,36.1
2022-10-13T20:28:43.068Z,35.1
2022-10-13T20:30:45.546Z,32.6
2022-10-13T20:32:52.640Z,34
2022-10-13T20:34:56.746Z,31.4
2022-10-13T20:37:00.840Z,29.8
2022-10-13T20:39:04.959Z,28.6
2022-10-13T20:41:09.016Z,28.1
2022-10-13T20:43:13.103Z,25.4
2022-10-13T20:45:17.220Z,26.8
2022-10-13T20:47:24.342Z,23.7
2022-10-13T20:49:28.388Z,24.9
2022-10-13T20:51:32.484Z,24
2022-10-13T20:53:36.582Z,20.4
2022-10-13T20:55:41.981Z,19.8
2022-10-13T20:57:44.755Z,19.3
2022-10-13T20:59:48.843Z,17
2022-10-13T21:01:55.939Z,17.2
2022-10-13T21:04:00.015Z,17.9
2022-10-13T21:06:04.112Z,18.5
2022-10-13T21:08:08.232Z,16.1
2022-10-13T21:10:12.308Z,16.8
2022-10-13T21:12:16.416Z,16.4
2022-10-13T21:14:20.485Z,14.1
2022-10-13T21:16:27.599Z,15.9
2022-10-13T21:18:31.684Z,17
2022-10-13T21:20:35.782Z,12.6
2022-10-13T21:23:00.377Z,12.9
2022-10-13T21:25:04.457Z,13.9
2022-10-13T21:27:08.542Z,13.7
2022-10-13T21:29:15.650Z,13.3
2022-10-13T21:31:19.725Z,13.5
2022-10-13T21:33:23.817Z,15.5
2022-10-13T21:35:27.908Z,12.8
2022-10-13T21:37:31.987Z,13.5
2022-10-13T21:41:40.163Z,14.1
2022-10-13T21:43:47.242Z,13.2
2022-10-13T21:45:51.341Z,12.8
2022-10-13T21:49:59.474Z,11.4
2022-10-13T21:52:03.555Z,12.3
2022-10-13T21:54:07.659Z,11.8
2022-10-13T21:56:11.740Z,13.3
2022-10-13T21:58:18.822Z,11.9
2022-10-13T22:00:22.984Z,13.1
2022-10-13T22:02:26.983Z,14.7
2022-10-13T22:04:31.044Z,13.2
2022-10-13T22:06:35.110Z,12.5
2022-10-13T22:08:39.220Z,13.3
2022-10-13T22:10:43.267Z,12.1
2022-10-13T22:12:50.339Z,13.2
2022-10-13T22:14:54.435Z,13.4
2022-10-13T22:16:58.480Z,12.9
2022-10-13T22:18:02.038Z,15.2
2022-10-13T22:20:06.091Z,14.8
2022-10-13T22:22:10.164Z,15.7
2022-10-13T22:24:14.232Z,15.8
2022-10-13T22:26:21.333Z,14.8
2022-10-13T22:28:25.428Z,16.9
2022-10-13T22:30:29.444Z,19.1
2022-10-13T22:32:33.506Z,16.2
2022-10-13T22:34:37.561Z,16.9
2022-10-13T22:36:44.848Z,17
2022-10-13T22:38:45.701Z,18.8
2022-10-13T22:40:52.768Z,18.6
2022-10-13T22:42:56.808Z,17.6
2022-10-13T22:45:00.906Z,18.5
2022-10-13T22:47:04.957Z,17.9
2022-10-13T22:49:09.007Z,19.3
2022-10-13T22:51:13.054Z,22
2022-10-13T22:53:17.119Z,20.5
2022-10-13T22:57:28.247Z,21.5
2022-10-13T23:03:40.469Z,25
2022-10-13T23:05:44.480Z,26.7
2022-10-13T23:07:48.533Z,25.4
2022-10-13T23:12:00.034Z,32.3
2022-10-13T23:14:03.764Z,33.3
2022-10-13T23:15:07.276Z,32.4
2022-10-13T23:17:11.332Z,33.2
2022-10-13T23:21:19.436Z,34.4
2022-10-13T23:25:30.541Z,34.3
2022-10-13T23:27:34.609Z,35.2
2022-10-13T23:29:38.667Z,34.7
2022-10-13T23:31:42.719Z,32.3
2022-10-13T23:33:46.753Z,30.2
2022-10-13T23:35:50.808Z,30.4
2022-10-13T23:37:57.896Z,32.1
2022-10-13T23:40:02.010Z,28.7
2022-10-13T23:42:06.006Z,28.4
2022-10-13T23:44:10.069Z,24
2022-10-13T23:46:14.116Z,22.9
2022-10-13T23:48:18.155Z,26.7
2022-10-13T23:50:22.212Z,22.1
2022-10-13T23:52:29.276Z,23.8
2022-10-13T23:54:33.341Z,25.3
